(Default Airport = EGHI - Southampton International)

METAR = EGHI 241020Z 14009KT 090V180 9999 FEW022 18/13 Q1018

STATION........ EGHI
OBSERVED....... Sun Sep 24, 11:20 BST
NOW............ Sun Sep 24, 11:30 BST
AGE............ 10 min ago
WIND........... SE at 10 mph
VISIBILITY..... 16 miles
CLOUDS......... partly cloudy
TEMP........... 64°F (18°C)
DEWPT.......... 55°F (13°C)
HUMIDITY....... 73%
BAROMETER...... 1018 hPa (30.06 in Hg)


    Get Weather Info from Airport: